AirNav   Pilot Hours Calculator
 
 389 users online  

2NE0 Johnson Lake Airport
Elwood, Nebraska, USA

GOING TO ELWOOD?


FAA INFORMATION EFFECTIVE 20 MAY 2021

Location

FAA Identifier: 2NE0
Lat/Long: 40-41-48.0230N 099-50-03.4290W
40-41.800383N 099-50.057150W
40.6966731,-99.8342858
(estimated)
Elevation: 2625 ft. / 800.1 m (surveyed)
Variation: 08E (1985)
From city: 6 miles N of ELWOOD, NE
Time zone: UTC -5 (UTC -6 during Standard Time)
Zip code: 68937

Airport Operations

Airport use: Private use. Permission required prior to landing
Activation date: 09/1963
Control tower: no
ARTCC: DENVER CENTER
FSS: COLUMBUS FLIGHT SERVICE STATION
Attendance: MAY-AUG 0500-2100
Wind indicator: yes
Segmented circle: no

Airport Communications

WX AWOS-3 at LXN (6 nm NE): 121.025 (308-324-5975)

Nearby radio navigation aids

VOR radial/distance  VOR name  Freq  Var
OZBr135/(13.0)COZAD VOR109.0009E
EARr262/(37.8)KEARNEY VOR111.2005E

Airport Services

Airframe service: NONE
Powerplant service: NONE

Runway Information

Runway 15/33

Dimensions: 3030 x 200 ft. / 924 x 61 m
Surface: turf
RUNWAY 15  RUNWAY 33
Traffic pattern: leftleft
Obstructions: pline20 ft. bldg, 50 ft. from runway

Airport Ownership and Management from official FAA records

Ownership: Privately-owned
Owner: LANCE WERTH
75075 JOHNSON LAKE DRIVE
JOHNSON LAKE, NE 68937
Phone 308-785-2100
Manager: DAN KELLER
ELWOOD, NE 68937
Phone 308-325-5657

Airport Operational Statistics

Aircraft based on the field: 2
Single engine airplanes: 1
Multi engine airplanes: 1
    

Additional Remarks

FOR CD CTC DENVER ARTCC AT 303-651-4257.

Instrument Procedures

There are no published instrument procedures at 2NE0.

Some nearby airports with instrument procedures:

KLXN - Jim Kelly Field Airport (6 nm NE)
KCZD - Cozad Municipal Airport (13 nm NW)
KGTE - Gothenburg Municipal Airport (20 nm NW)
KHDE - Brewster Field Airport (27 nm SE)
KCSB - Cambridge Municipal Airport (28 nm SW)
 
Loc | Ops | Rwys | IFR | FBO | Links
Com | Nav | Svcs | Stats | Notes
Area around 2NE0 (Johnson Lake Airport)
 
Road maps at: MapQuest Bing Google
 
Aerial photo
WARNING: Photo may not be current or correct
Aerial photo of 2NE0 (Johnson Lake Airport)
Photo by Dave Warner, RAF Illinois Ambassador
Photo taken 16-Aug-2020
looking east.

Do you have a better or more recent aerial photo of Johnson Lake Airport that you would like to share? If so, please send us your photo.

 
Sectional chart

 
Airport distance calculator
Flying to Johnson Lake Airport? Find the distance to fly.

From to 2NE0

Sunrise and sunset
Times for 13-Jun-2021
 Local
(UTC-5)
 Zulu
(UTC)
Morning civil twilight05:3510:35
Sunrise06:0911:09
Sunset21:1002:10
Evening civil twilight21:4302:43

Current date and time
Zulu (UTC)  13-Jun-2021 09:44:43
Local (UTC-5)  13-Jun-2021 04:44:43
 
METAR
KLXN 
6nm NE 
130935Z AUTO 13004KT 10SM CLR 15/11 A3011 RMK AO2 T01500110
TAF
KEAR 
38nm E 
130538Z 1306/1406 12006KT P6SM SKC FM130800 15005KT P6SM SKC FM131200 18009KT P6SM SKC FM140500 17006KT P6SM FEW250
KMCK 
45nm SW 
130520Z 1306/1406 13008KT P6SM SKC FM131500 17012KT P6SM SKC
KLBF 
45nm NW 
130528Z 1306/1406 14004KT P6SM SKC FM131500 16009KT P6SM FEW250 FM140200 13005KT P6SM SKC
NOTAMs
Click for the latest NOTAMs
NOTAMs are issued by the DoD/FAA and will open in a separate window not controlled by AirNav.

 

 
 

Would you like to see your business listed on this page?

 If your business provides an interesting product or service to pilots, flight crews, aircraft, or users of the Johnson Lake Airport, you should consider listing it here.  To start the listing process, click on the button below
 
Add a business
 

Other Pages about Johnson Lake Airport

Update a link
 
Copyright © AirNav, LLC. All rights reserved. Privacy Policy  Contact